Time;durP1;ratioP1;P1;durP2;ratioP2;P2;SDS_P1;SDS_P2;PMS_P1;PMS_P2;Temp;Humidity;BMP_temperature;BMP_pressure;BME280_temperature;BME280_humidity;BME280_pressure;Samples;Min_cycle;Max_cycle;Signal;HPM_P1;HPM_P2
2021/05/07 00:00:36;;;;;;;5.60;4.30;;;6.30;84.90;;;;;;4980696;28;20037;-78
2021/05/07 00:03:01;;;;;;;6.68;5.45;;;6.50;83.40;;;;;;4998712;28;20022;-78
2021/05/07 00:05:27;;;;;;;7.07;5.30;;;6.40;84.10;;;;;;4979925;28;20033;-77
2021/05/07 00:07:53;;;;;;;6.07;5.13;;;6.20;85.10;;;;;;4986977;28;20034;-78
2021/05/07 00:10:18;;;;;;;10.38;6.47;;;6.20;84.60;;;;;;4993506;28;20113;-78
2021/05/07 00:12:44;;;;;;;8.20;7.03;;;5.90;84.60;;;;;;4964673;28;20051;-78
2021/05/07 00:15:10;;;;;;;9.18;7.35;;;5.70;84.70;;;;;;4981771;28;20062;-78
2021/05/07 00:17:36;;;;;;;7.70;5.78;;;5.60;86.00;;;;;;4982099;28;20038;-78
2021/05/07 00:20:03;;;;;;;8.45;6.32;;;5.60;84.70;;;;;;4982903;28;20030;-78
2021/05/07 00:22:29;;;;;;;10.63;7.32;;;5.50;85.40;;;;;;4982138;28;20113;-78
2021/05/07 00:24:54;;;;;;;11.45;8.23;;;5.40;85.80;;;;;;4963150;28;20113;-77
2021/05/07 00:27:20;;;;;;;8.23;6.03;;;5.40;86.40;;;;;;4979173;28;20054;-78
2021/05/07 00:29:46;;;;;;;9.75;7.82;;;5.40;86.50;;;;;;4993500;28;20861;-78
2021/05/07 00:32:13;;;;;;;9.20;6.25;;;5.40;85.70;;;;;;4984500;28;20038;-77
2021/05/07 00:34:38;;;;;;;11.50;7.38;;;5.30;85.90;;;;;;4992305;28;20052;-77
2021/05/07 00:37:04;;;;;;;9.02;7.13;;;5.50;87.10;;;;;;4994684;28;20489;-78
2021/05/07 00:39:29;;;;;;;10.27;7.97;;;5.40;85.10;;;;;;4990246;28;20113;-77
2021/05/07 00:41:55;;;;;;;10.20;6.78;;;5.40;85.30;;;;;;4973858;28;20064;-77
2021/05/07 00:44:21;;;;;;;12.60;9.48;;;5.20;85.30;;;;;;4995819;28;20046;-77
2021/05/07 00:46:46;;;;;;;9.80;5.63;;;5.20;85.90;;;;;;4978568;28;20034;-77
2021/05/07 00:49:12;;;;;;;10.98;7.85;;;5.30;86.50;;;;;;4976555;28;20541;-77
2021/05/07 00:51:37;;;;;;;10.05;6.60;;;5.30;86.10;;;;;;4979031;28;20034;-77
2021/05/07 00:54:03;;;;;;;12.82;8.98;;;5.40;86.20;;;;;;4977585;28;20092;-77
2021/05/07 00:56:29;;;;;;;10.85;7.35;;;5.50;86.00;;;;;;4994656;28;20576;-77
2021/05/07 00:58:54;;;;;;;8.48;6.35;;;5.60;86.10;;;;;;4979343;28;20117;-78
2021/05/07 01:01:20;;;;;;;9.43;6.80;;;5.60;86.30;;;;;;4975947;28;20036;-77
2021/05/07 01:03:45;;;;;;;10.63;8.27;;;5.60;86.00;;;;;;4962673;28;20417;-77
2021/05/07 01:06:11;;;;;;;13.10;8.40;;;5.60;86.00;;;;;;4982587;28;20077;-77
2021/05/07 01:08:36;;;;;;;13.65;8.15;;;5.60;86.90;;;;;;4992022;28;20038;-77
2021/05/07 01:11:02;;;;;;;7.00;5.05;;;5.70;87.10;;;;;;4994763;28;21057;-77
2021/05/07 01:13:27;;;;;;;17.00;11.98;;;5.80;86.40;;;;;;4993384;28;20053;-77
2021/05/07 01:15:53;;;;;;;14.25;10.95;;;5.90;86.70;;;;;;4996030;28;20061;-77
2021/05/07 01:18:18;;;;;;;13.30;9.85;;;5.80;86.60;;;;;;4979725;28;20041;-76
2021/05/07 01:20:44;;;;;;;12.88;9.55;;;5.80;87.50;;;;;;4994646;28;20022;-78
2021/05/07 01:23:10;;;;;;;14.07;8.90;;;5.70;88.00;;;;;;4997144;28;20314;-77
2021/05/07 01:25:40;;;;;;;13.27;8.93;;;5.60;88.60;;;;;;4977135;28;20030;-77
2021/05/07 01:28:08;;;;;;;13.93;8.50;;;5.60;88.70;;;;;;4974874;28;20389;-77
2021/05/07 01:30:41;;;;;;;12.00;7.32;;;5.80;88.20;;;;;;4976918;28;20041;-77
2021/05/07 01:33:10;;;;;;;14.77;10.00;;;5.80;87.70;;;;;;4978364;28;20095;-77
2021/05/07 01:35:35;;;;;;;9.43;7.07;;;5.80;88.00;;;;;;4947637;28;20110;-77
2021/05/07 01:38:05;;;;;;;13.05;8.52;;;5.70;88.70;;;;;;4992966;28;20084;-77
2021/05/07 01:40:34;;;;;;;15.23;10.70;;;5.80;88.30;;;;;;4993501;28;20038;-77
2021/05/07 01:43:00;;;;;;;14.05;11.35;;;5.80;87.50;;;;;;4995268;28;20121;-77
2021/05/07 01:45:27;;;;;;;6.50;4.57;;;5.70;87.70;;;;;;4962278;28;20577;-77
2021/05/07 01:47:53;;;;;;;10.07;5.93;;;5.70;88.80;;;;;;4998147;28;20416;-77
2021/05/07 01:50:27;;;;;;;13.40;8.00;;;5.70;88.60;;;;;;4981815;28;20038;-76
2021/05/07 01:52:54;;;;;;;14.23;8.57;;;5.70;88.50;;;;;;4988342;28;20440;-76
2021/05/07 01:55:23;;;;;;;18.38;11.95;;;5.70;88.30;;;;;;4984853;28;20397;-77
2021/05/07 01:57:48;;;;;;;9.93;7.10;;;5.70;88.80;;;;;;4998168;28;20037;-77
2021/05/07 02:00:18;;;;;;;9.55;4.35;;;5.60;88.90;;;;;;4972880;28;20030;-77
2021/05/07 02:02:44;;;;;;;15.02;10.77;;;5.60;89.50;;;;;;4985157;28;20480;-77
2021/05/07 02:05:10;;;;;;;8.38;5.65;;;5.70;89.00;;;;;;4986867;28;20031;-77
2021/05/07 02:07:36;;;;;;;14.20;9.43;;;5.70;89.10;;;;;;4994558;28;21384;-77
2021/05/07 02:10:12;;;;;;;7.25;4.07;;;5.70;88.30;;;;;;4999903;28;20066;-77
2021/05/07 02:12:38;;;;;;;12.18;8.52;;;5.70;88.80;;;;;;4964228;28;20354;-76
2021/05/07 02:15:12;;;;;;;10.85;5.80;;;5.70;89.10;;;;;;4981754;28;20045;-77
2021/05/07 02:17:37;;;;;;;22.15;13.82;;;5.60;89.70;;;;;;4970183;28;20040;-77
2021/05/07 02:20:04;;;;;;;16.70;11.07;;;5.50;89.20;;;;;;4963616;28;20109;-77
2021/05/07 02:22:30;;;;;;;19.27;14.63;;;5.50;88.80;;;;;;4981404;28;20041;-77
2021/05/07 02:24:56;;;;;;;13.52;10.85;;;5.40;89.90;;;;;;4996705;28;20038;-76
2021/05/07 02:27:21;;;;;;;16.95;12.07;;;5.30;90.00;;;;;;4992673;28;20398;-76
2021/05/07 02:29:47;;;;;;;19.63;14.38;;;5.10;89.60;;;;;;4998258;28;20100;-77
2021/05/07 02:32:12;;;;;;;16.52;9.88;;;5.10;90.00;;;;;;4982904;28;20563;-76
2021/05/07 02:34:38;;;;;;;15.40;11.65;;;5.00;90.00;;;;;;4995917;28;20509;-77
2021/05/07 02:37:03;;;;;;;13.98;9.02;;;5.20;90.20;;;;;;4996444;28;20191;-77
2021/05/07 02:39:29;;;;;;;13.85;5.40;;;5.20;90.00;;;;;;4978549;28;20034;-78
2021/05/07 02:41:54;;;;;;;9.50;7.18;;;5.10;90.10;;;;;;4981506;28;20553;-77
2021/05/07 02:44:20;;;;;;;19.10;13.95;;;5.10;89.80;;;;;;4979850;28;20034;-77
2021/05/07 02:46:45;;;;;;;23.58;14.82;;;5.00;89.20;;;;;;4991847;28;20113;-77
2021/05/07 02:49:11;;;;;;;13.48;9.00;;;5.00;89.10;;;;;;4994074;28;20102;-77
2021/05/07 02:51:37;;;;;;;18.20;12.88;;;4.90;90.30;;;;;;4981521;28;20056;-76
2021/05/07 02:54:02;;;;;;;16.88;11.70;;;4.70;90.10;;;;;;4983322;28;20023;-76
2021/05/07 02:56:28;;;;;;;20.23;14.50;;;4.80;90.20;;;;;;4994755;28;20568;-76
2021/05/07 02:58:54;;;;;;;20.50;13.95;;;4.70;90.40;;;;;;4980035;28;20110;-76
2021/05/07 03:01:19;;;;;;;18.75;13.45;;;4.60;90.30;;;;;;4994910;28;20046;-77
2021/05/07 03:03:45;;;;;;;19.25;14.07;;;4.50;90.20;;;;;;4997735;28;20485;-77
2021/05/07 03:06:10;;;;;;;19.33;13.23;;;4.60;90.50;;;;;;4992130;28;20090;-76
2021/05/07 03:08:37;;;;;;;20.80;13.25;;;4.70;90.30;;;;;;4995548;28;20331;-77
2021/05/07 03:11:03;;;;;;;20.35;14.02;;;4.50;90.20;;;;;;4992063;28;20029;-76
2021/05/07 03:13:28;;;;;;;17.33;12.40;;;4.50;90.40;;;;;;4958135;28;20773;-77
2021/05/07 03:15:54;;;;;;;19.75;13.77;;;4.60;90.50;;;;;;4980612;28;20026;-76
2021/05/07 03:18:20;;;;;;;21.63;14.13;;;4.60;90.30;;;;;;4967967;28;20081;-77
2021/05/07 03:20:46;;;;;;;16.30;11.10;;;4.40;90.30;;;;;;4995371;28;20052;-77
2021/05/07 03:23:11;;;;;;;20.65;14.07;;;4.40;90.50;;;;;;4981536;28;20109;-76
2021/05/07 03:25:37;;;;;;;20.95;13.73;;;4.50;90.60;;;;;;4980535;28;20034;-76
2021/05/07 03:28:03;;;;;;;25.23;16.55;;;4.30;90.00;;;;;;4996686;28;20030;-76
2021/05/07 03:30:28;;;;;;;17.83;11.55;;;4.20;89.80;;;;;;4980417;28;20510;-75
2021/05/07 03:32:54;;;;;;;20.10;14.25;;;4.30;90.60;;;;;;4970194;28;20496;-76
2021/05/07 03:35:19;;;;;;;22.17;16.70;;;4.40;90.30;;;;;;4983269;28;20038;-77
2021/05/07 03:37:45;;;;;;;17.40;12.65;;;4.40;89.80;;;;;;4996893;28;20026;-76
2021/05/07 03:40:11;;;;;;;21.55;13.00;;;4.50;90.40;;;;;;4976434;28;20034;-76
2021/05/07 03:42:36;;;;;;;15.00;11.18;;;4.40;90.20;;;;;;4979307;28;20046;-77
2021/05/07 03:45:03;;;;;;;19.52;13.57;;;4.40;90.00;;;;;;4980742;28;20113;-76
2021/05/07 03:47:28;;;;;;;21.02;14.90;;;4.30;89.90;;;;;;4980013;28;20085;-76
2021/05/07 03:49:54;;;;;;;26.30;16.23;;;4.40;90.00;;;;;;4963661;28;20050;-76
2021/05/07 03:52:19;;;;;;;16.33;10.95;;;4.30;90.20;;;;;;4978870;28;20128;-77
2021/05/07 03:54:45;;;;;;;19.13;11.52;;;4.30;90.60;;;;;;4994946;28;20490;-76
2021/05/07 03:57:11;;;;;;;16.70;11.57;;;4.40;90.70;;;;;;4978928;28;20448;-77
2021/05/07 03:59:36;;;;;;;18.13;11.18;;;4.40;90.40;;;;;;4980818;28;20034;-76
2021/05/07 04:02:02;;;;;;;15.32;9.40;;;4.40;90.40;;;;;;4995389;28;20030;-76
2021/05/07 04:04:27;;;;;;;20.67;14.13;;;4.40;90.30;;;;;;4975901;28;20050;-76
2021/05/07 04:06:53;;;;;;;17.23;11.23;;;4.30;89.90;;;;;;4970851;28;20034;-77
2021/05/07 04:09:25;;;;;;;22.13;14.38;;;4.40;90.30;;;;;;4977102;28;20041;-76
2021/05/07 04:11:56;;;;;;;14.25;9.38;;;4.30;90.50;;;;;;4975341;28;20108;-76
2021/05/07 04:14:21;;;;;;;15.32;9.85;;;4.30;90.50;;;;;;4983250;28;20424;-77
2021/05/07 04:16:47;;;;;;;16.45;11.07;;;4.40;90.00;;;;;;4994407;28;20125;-77
2021/05/07 04:19:12;;;;;;;16.98;12.15;;;4.50;90.00;;;;;;4976671;28;20053;-76
2021/05/07 04:21:38;;;;;;;23.20;14.73;;;4.30;90.00;;;;;;4995222;28;20457;-76
2021/05/07 04:24:04;;;;;;;17.20;11.85;;;4.20;90.60;;;;;;4976468;28;20092;-76
2021/05/07 04:26:30;;;;;;;21.35;15.25;;;4.30;90.70;;;;;;4979990;28;20027;-76
2021/05/07 04:28:55;;;;;;;17.98;13.02;;;4.30;90.70;;;;;;4994702;28;20037;-77
2021/05/07 04:31:21;;;;;;;21.08;14.30;;;4.20;90.40;;;;;;4974924;28;20037;-76
2021/05/07 04:33:46;;;;;;;18.90;11.90;;;4.20;90.60;;;;;;4995591;28;20117;-76
2021/05/07 04:36:12;;;;;;;22.05;14.85;;;4.40;90.50;;;;;;4979478;28;20026;-76
2021/05/07 04:38:37;;;;;;;28.45;16.38;;;4.40;90.10;;;;;;4981240;28;20120;-77
2021/05/07 04:41:03;;;;;;;17.13;10.93;;;4.40;90.30;;;;;;4979163;28;20034;-77
2021/05/07 04:43:29;;;;;;;21.83;15.15;;;4.40;90.10;;;;;;4981085;28;20084;-77
2021/05/07 04:45:54;;;;;;;18.23;13.00;;;4.40;90.20;;;;;;4979649;28;20486;-76
2021/05/07 04:48:20;;;;;;;24.73;17.38;;;4.40;90.30;;;;;;4975408;28;20485;-76
2021/05/07 04:50:46;;;;;;;25.30;15.45;;;4.60;90.30;;;;;;4995513;28;20293;-77
2021/05/07 04:53:11;;;;;;;18.85;11.88;;;4.60;90.30;;;;;;4982596;28;20121;-77
2021/05/07 04:55:37;;;;;;;21.48;13.90;;;4.70;90.30;;;;;;4981255;28;20078;-77
2021/05/07 04:58:02;;;;;;;21.00;13.15;;;4.90;90.20;;;;;;4982397;28;20375;-77
2021/05/07 05:00:28;;;;;;;19.77;10.30;;;4.90;90.20;;;;;;4995371;28;20142;-77
2021/05/07 05:02:54;;;;;;;24.77;15.15;;;5.00;90.10;;;;;;4979098;28;20413;-77
2021/05/07 05:05:19;;;;;;;32.13;21.42;;;5.10;90.10;;;;;;4978450;28;20153;-77
2021/05/07 05:07:52;;;;;;;22.92;16.50;;;5.10;90.30;;;;;;4978753;28;20153;-76
2021/05/07 05:10:19;;;;;;;18.95;11.13;;;5.20;90.00;;;;;;4978925;28;20037;-77
2021/05/07 05:12:44;;;;;;;22.48;14.30;;;5.40;89.50;;;;;;4959727;28;20037;-77
2021/05/07 05:15:10;;;;;;;24.73;15.75;;;5.30;89.50;;;;;;4964256;28;20041;-77
2021/05/07 05:17:36;;;;;;;30.30;19.25;;;5.40;89.40;;;;;;4965327;28;20063;-77
2021/05/07 05:20:02;;;;;;;27.92;17.80;;;5.40;89.60;;;;;;4965019;28;20042;-77
2021/05/07 05:22:28;;;;;;;23.65;15.20;;;5.30;89.90;;;;;;4946107;28;20031;-77
2021/05/07 05:24:53;;;;;;;20.90;14.63;;;5.30;89.60;;;;;;4990683;28;20239;-77
2021/05/07 05:27:19;;;;;;;23.13;13.80;;;5.40;90.00;;;;;;4994844;28;20088;-77
2021/05/07 05:29:45;;;;;;;20.15;12.65;;;5.40;89.40;;;;;;4957627;28;20796;-77
2021/05/07 05:32:12;;;;;;;29.52;19.40;;;5.40;89.60;;;;;;4965276;28;20042;-77
2021/05/07 05:34:39;;;;;;;23.88;14.68;;;5.40;89.80;;;;;;4997996;28;20132;-76
2021/05/07 05:37:04;;;;;;;28.15;17.73;;;5.50;89.70;;;;;;4996974;28;20121;-77
2021/05/07 05:39:30;;;;;;;19.17;12.77;;;5.50;89.60;;;;;;4980935;28;20038;-77
2021/05/07 05:41:58;;;;;;;23.27;16.65;;;5.50;90.00;;;;;;4993854;28;20027;-77
2021/05/07 05:44:23;;;;;;;24.20;15.93;;;5.60;90.00;;;;;;5000115;28;20126;-77
2021/05/07 05:46:49;;;;;;;28.25;17.60;;;5.70;90.00;;;;;;4978543;28;20594;-77
2021/05/07 05:49:14;;;;;;;23.02;15.13;;;5.70;90.50;;;;;;4984552;28;20030;-77
2021/05/07 05:51:40;;;;;;;27.20;17.55;;;5.80;90.50;;;;;;4996066;28;20097;-77
2021/05/07 05:54:05;;;;;;;22.40;15.35;;;5.90;90.30;;;;;;4980739;28;20041;-77
2021/05/07 05:56:31;;;;;;;25.05;13.23;;;6.00;89.70;;;;;;4989525;28;20307;-77
2021/05/07 05:58:57;;;;;;;20.25;14.15;;;6.10;89.30;;;;;;4968678;28;20049;-77
2021/05/07 06:01:22;;;;;;;26.05;18.85;;;6.10;89.00;;;;;;4994157;28;20029;-77
2021/05/07 06:03:48;;;;;;;21.27;13.65;;;6.10;88.80;;;;;;4992568;28;20030;-77
2021/05/07 06:06:13;;;;;;;25.33;16.55;;;6.10;88.60;;;;;;4978516;28;20022;-77
2021/05/07 06:08:39;;;;;;;30.20;21.25;;;6.00;89.60;;;;;;4977517;28;20088;-77
2021/05/07 06:11:04;;;;;;;36.83;23.77;;;6.00;90.20;;;;;;4996274;28;20026;-77
2021/05/07 06:13:30;;;;;;;28.10;19.20;;;6.00;89.30;;;;;;4975176;28;20033;-77
2021/05/07 06:15:56;;;;;;;22.55;15.02;;;6.00;89.20;;;;;;4993333;28;20424;-77
2021/05/07 06:18:21;;;;;;;23.45;15.88;;;6.10;88.40;;;;;;4960563;28;20044;-76
2021/05/07 06:20:47;;;;;;;20.25;14.23;;;6.10;89.70;;;;;;4976076;28;20033;-76
2021/05/07 06:23:12;;;;;;;23.80;15.60;;;6.10;89.90;;;;;;4991382;28;20049;-76
2021/05/07 06:25:38;;;;;;;26.00;16.58;;;6.10;90.00;;;;;;4988413;28;20027;-76
2021/05/07 06:28:04;;;;;;;33.30;21.70;;;6.10;90.00;;;;;;4961135;28;20321;-76
2021/05/07 06:30:29;;;;;;;33.65;22.65;;;6.00;90.60;;;;;;4979889;28;20054;-76
2021/05/07 06:32:55;;;;;;;41.85;25.90;;;6.00;89.90;;;;;;4978020;28;20038;-77
2021/05/07 06:35:20;;;;;;;28.83;18.90;;;6.00;89.90;;;;;;4963768;28;20121;-77
2021/05/07 06:37:46;;;;;;;21.13;13.57;;;6.00;89.40;;;;;;4979726;28;21256;-76
2021/05/07 06:40:12;;;;;;;20.23;12.10;;;6.00;89.30;;;;;;4965868;28;20039;-76
2021/05/07 06:42:38;;;;;;;16.50;8.73;;;6.00;89.20;;;;;;4990562;28;20463;-77
2021/05/07 06:45:05;;;;;;;11.50;8.27;;;5.90;89.10;;;;;;4982420;28;20267;-77
2021/05/07 06:47:30;;;;;;;9.52;7.50;;;5.90;89.60;;;;;;4996302;28;20032;-77
2021/05/07 06:49:56;;;;;;;13.48;7.60;;;5.80;90.30;;;;;;4999364;28;20116;-77
2021/05/07 06:52:22;;;;;;;10.77;5.85;;;5.60;91.60;;;;;;4983646;28;20041;-77
2021/05/07 06:54:47;;;;;;;8.00;6.90;;;5.30;92.50;;;;;;4978450;28;20061;-76
2021/05/07 06:57:13;;;;;;;10.77;6.38;;;5.20;92.20;;;;;;4993126;28;20041;-77
2021/05/07 06:59:38;;;;;;;6.80;5.57;;;5.20;91.70;;;;;;4990708;28;20034;-77
2021/05/07 07:02:04;;;;;;;7.63;5.95;;;5.20;91.50;;;;;;4994378;28;20396;-77
2021/05/07 07:04:29;;;;;;;10.00;6.60;;;5.20;91.00;;;;;;4949677;28;20409;-77
2021/05/07 07:06:55;;;;;;;7.57;5.60;;;5.30;90.80;;;;;;4972765;28;20038;-77
2021/05/07 07:09:20;;;;;;;8.88;6.15;;;5.30;90.80;;;;;;4977574;28;20033;-77
2021/05/07 07:11:46;;;;;;;8.20;5.93;;;5.30;90.70;;;;;;4993593;28;20041;-76
2021/05/07 07:14:12;;;;;;;6.88;4.78;;;5.30;90.60;;;;;;4984462;28;20204;-77
2021/05/07 07:16:38;;;;;;;8.35;5.40;;;5.40;90.60;;;;;;4970726;28;20502;-77
2021/05/07 07:19:03;;;;;;;14.02;5.60;;;5.40;90.70;;;;;;4965736;28;20030;-77
2021/05/07 07:21:29;;;;;;;9.45;6.38;;;5.50;90.40;;;;;;4977927;28;20088;-77
2021/05/07 07:23:54;;;;;;;6.82;5.10;;;5.60;91.10;;;;;;4961592;28;20394;-77
2021/05/07 07:26:20;;;;;;;7.88;4.57;;;5.60;90.90;;;;;;4993774;28;20141;-77
2021/05/07 07:28:48;;;;;;;7.07;4.90;;;5.70;90.90;;;;;;4963696;28;20141;-77
2021/05/07 07:31:13;;;;;;;7.60;4.85;;;5.80;90.50;;;;;;4981068;28;20470;-77
2021/05/07 07:33:39;;;;;;;8.45;6.13;;;5.80;90.90;;;;;;4979291;28;20023;-78
2021/05/07 07:36:04;;;;;;;6.90;5.25;;;5.90;91.30;;;;;;4979474;28;20485;-77
2021/05/07 07:38:30;;;;;;;10.00;6.28;;;5.90;91.10;;;;;;4979434;28;20034;-77
2021/05/07 07:40:56;;;;;;;8.20;6.13;;;6.00;90.90;;;;;;4968882;28;20033;-77
2021/05/07 07:43:21;;;;;;;9.55;7.22;;;6.00;91.20;;;;;;4966132;28;20396;-77
2021/05/07 07:45:48;;;;;;;9.65;6.47;;;6.10;91.60;;;;;;4999771;28;20026;-78
2021/05/07 07:48:14;;;;;;;8.57;6.78;;;6.10;91.40;;;;;;4962585;28;20038;-77
2021/05/07 07:50:40;;;;;;;18.63;14.82;;;6.20;91.20;;;;;;4967035;28;20457;-78
2021/05/07 07:53:06;;;;;;;14.75;10.40;;;6.10;92.50;;;;;;4980472;28;20038;-77
2021/05/07 07:55:31;;;;;;;16.48;12.75;;;6.10;92.10;;;;;;4966048;28;20041;-77
2021/05/07 07:57:57;;;;;;;34.28;15.13;;;6.10;91.80;;;;;;5002518;28;20394;-77
2021/05/07 08:00:22;;;;;;;12.52;7.63;;;6.10;92.10;;;;;;4981445;28;20479;-77
2021/05/07 08:02:48;;;;;;;7.65;5.85;;;6.00;92.00;;;;;;4969451;28;20044;-77
2021/05/07 08:05:14;;;;;;;9.60;5.60;;;6.00;92.70;;;;;;4989615;28;20034;-77
2021/05/07 08:07:40;;;;;;;7.60;5.20;;;6.10;92.40;;;;;;5000919;28;20041;-77
2021/05/07 08:10:06;;;;;;;9.57;6.13;;;6.20;92.40;;;;;;4999064;28;20034;-77
2021/05/07 08:12:32;;;;;;;6.43;5.40;;;6.30;92.30;;;;;;5001254;28;20052;-78
2021/05/07 08:14:58;;;;;;;10.90;5.97;;;6.50;92.20;;;;;;4986267;28;20432;-77
2021/05/07 08:17:23;;;;;;;8.43;5.90;;;6.70;92.30;;;;;;5002082;28;20084;-77
2021/05/07 08:19:49;;;;;;;8.73;6.10;;;6.90;91.30;;;;;;4986848;28;20030;-77
2021/05/07 08:22:15;;;;;;;51.80;14.20;;;7.10;91.90;;;;;;4989568;28;20037;-77
2021/05/07 08:24:41;;;;;;;18.52;14.80;;;7.30;92.60;;;;;;4971989;28;20038;-77
2021/05/07 08:27:07;;;;;;;17.27;11.13;;;7.60;92.70;;;;;;4967647;28;20586;-77
2021/05/07 08:29:34;;;;;;;12.13;9.95;;;7.80;92.40;;;;;;4972779;28;20054;-77
2021/05/07 08:31:59;;;;;;;7.43;5.90;;;8.00;92.40;;;;;;4986501;28;20029;-78
2021/05/07 08:34:25;;;;;;;8.05;6.05;;;8.00;90.40;;;;;;4984428;28;20041;-77
2021/05/07 08:36:50;;;;;;;7.95;6.75;;;8.20;91.20;;;;;;5001009;28;20030;-78
2021/05/07 08:39:16;;;;;;;8.02;6.38;;;8.40;91.00;;;;;;4968599;28;20034;-77
2021/05/07 08:41:43;;;;;;;4.85;4.22;;;8.70;92.60;;;;;;4987891;28;20177;-78
2021/05/07 08:44:08;;;;;;;5.40;4.75;;;8.90;91.40;;;;;;4997831;28;20084;-78
2021/05/07 08:46:34;;;;;;;8.00;5.07;;;9.00;91.70;;;;;;4998284;28;20030;-78
2021/05/07 08:49:01;;;;;;;5.78;5.18;;;9.20;92.40;;;;;;4982010;28;20162;-77
2021/05/07 08:51:26;;;;;;;6.47;5.10;;;9.50;91.70;;;;;;4984869;28;20046;-77
2021/05/07 08:53:52;;;;;;;6.80;5.85;;;9.80;93.60;;;;;;5005443;28;20028;-78
2021/05/07 08:56:17;;;;;;;5.90;4.57;;;10.10;93.30;;;;;;4972188;28;20137;-78
2021/05/07 08:58:45;;;;;;;7.65;5.75;;;10.40;91.10;;;;;;4984159;28;20052;-78
2021/05/07 09:01:11;;;;;;;8.73;6.13;;;10.70;92.60;;;;;;4998812;28;20116;-78
2021/05/07 09:03:40;;;;;;;6.15;4.75;;;11.10;93.50;;;;;;4969479;28;20173;-78
2021/05/07 09:06:18;;;;;;;5.20;4.53;;;11.40;93.80;;;;;;4982799;28;20127;-78
2021/05/07 09:08:48;;;;;;;8.00;4.75;;;11.60;93.50;;;;;;4986325;28;20022;-78
2021/05/07 09:11:14;;;;;;;5.70;4.60;;;11.90;93.70;;;;;;4999271;28;20097;-78
2021/05/07 09:13:40;;;;;;;4.63;4.05;;;12.30;94.10;;;;;;4969179;28;20385;-78
2021/05/07 09:16:06;;;;;;;4.63;3.60;;;12.60;93.90;;;;;;5000749;28;20033;-78
2021/05/07 09:18:41;;;;;;;3.58;3.10;;;12.70;93.00;;;;;;4978747;28;20030;-78
2021/05/07 09:21:07;;;;;;;4.97;4.43;;;12.80;92.50;;;;;;4986143;28;20080;-78
2021/05/07 09:23:40;;;;;;;4.05;2.60;;;13.00;93.40;;;;;;4966235;28;20026;-78
2021/05/07 09:26:05;;;;;;;2.70;2.42;;;13.10;92.50;;;;;;4976866;28;20461;-78
2021/05/07 09:28:31;;;;;;;3.00;2.30;;;13.10;90.80;;;;;;4999644;28;20061;-78
2021/05/07 09:31:15;;;;;;;2.92;2.30;;;13.10;91.80;;;;;;4981339;28;20042;-79
2021/05/07 09:33:45;;;;;;;5.22;2.10;;;13.30;92.60;;;;;;4971951;28;20562;-79
2021/05/07 09:36:27;;;;;;;2.97;2.10;;;13.50;91.70;;;;;;4983704;28;20121;-79
2021/05/07 09:38:52;;;;;;;2.05;1.85;;;13.90;92.10;;;;;;4981623;28;20482;-79
2021/05/07 09:41:18;;;;;;;2.67;1.67;;;14.10;92.00;;;;;;4986174;28;20067;-79
2021/05/07 09:43:44;;;;;;;2.75;1.80;;;14.10;91.70;;;;;;4985954;28;20720;-79
2021/05/07 09:46:09;;;;;;;2.72;1.25;;;14.00;91.40;;;;;;4980923;28;20026;-79
2021/05/07 09:48:39;;;;;;;2.25;1.60;;;14.00;91.80;;;;;;4984055;28;20537;-79
2021/05/07 09:51:07;;;;;;;2.60;2.05;;;14.10;91.20;;;;;;4969428;28;20026;-79
2021/05/07 09:53:34;;;;;;;2.30;1.88;;;14.20;91.10;;;;;;4969768;28;20121;-79
2021/05/07 09:56:10;;;;;;;2.05;1.23;;;14.30;90.00;;;;;;4984629;28;20485;-79
2021/05/07 09:58:37;;;;;;;3.92;1.45;;;14.40;90.40;;;;;;5000729;28;20540;-79
2021/05/07 10:01:03;;;;;;;4.55;1.95;;;14.70;90.10;;;;;;4982812;28;20113;-79
2021/05/07 10:03:28;;;;;;;6.05;2.38;;;15.00;86.10;;;;;;4966927;28;20069;-80
2021/05/07 10:05:54;;;;;;;2.15;1.98;;;15.10;90.00;;;;;;4969960;28;20034;-80
2021/05/07 10:08:19;;;;;;;2.75;1.95;;;15.40;90.30;;;;;;4970307;28;20037;-80
2021/05/07 10:10:45;;;;;;;5.20;2.25;;;15.50;89.50;;;;;;5003725;28;20498;-80
2021/05/07 10:13:15;;;;;;;2.33;2.10;;;15.50;88.10;;;;;;4973514;28;20036;-80
2021/05/07 10:15:41;;;;;;;2.42;1.73;;;15.50;87.50;;;;;;4971649;28;20060;-80
2021/05/07 10:18:08;;;;;;;3.03;1.98;;;15.70;88.50;;;;;;4973868;28;20030;-79
2021/05/07 10:20:40;;;;;;;1.55;1.45;;;15.80;85.10;;;;;;5002199;28;20547;-79
2021/05/07 10:23:17;;;;;;;2.38;1.73;;;15.70;82.80;;;;;;5004241;28;20038;-80
2021/05/07 10:26:12;;;;;;;3.47;2.03;;;15.80;85.10;;;;;;4980145;28;20559;-80
2021/05/07 10:28:48;;;;;;;2.83;1.83;;;15.90;84.00;;;;;;4976663;28;20563;-80
2021/05/07 10:31:15;;;;;;;;;;;16.00;82.50;;;;;;4970353;28;20502;-80
2021/05/07 10:33:42;;;;;;;1.75;1.33;;;16.10;83.10;;;;;;5012615;28;19917;-80
2021/05/07 10:36:08;;;;;;;3.80;1.70;;;16.10;81.40;;;;;;4987309;28;20401;-79
2021/05/07 10:38:33;;;;;;;4.82;1.65;;;16.30;82.20;;;;;;4984230;28;20041;-80
2021/05/07 10:41:10;;;;;;;1.52;1.15;;;16.50;81.00;;;;;;4973284;28;20086;-80
2021/05/07 10:43:36;;;;;;;1.92;1.65;;;16.50;79.70;;;;;;4974182;28;20219;-79
2021/05/07 10:46:03;;;;;;;3.28;2.03;;;16.70;81.50;;;;;;5007332;28;20472;-79
2021/05/07 10:48:28;;;;;;;3.92;1.83;;;16.80;81.20;;;;;;4973176;28;20114;-79
2021/05/07 10:50:57;;;;;;;2.50;1.52;;;16.90;79.40;;;;;;5007140;28;20036;-79
2021/05/07 10:53:36;;;;;;;1.83;1.58;;;17.10;78.30;;;;;;4988899;28;20035;-79
2021/05/07 10:56:13;;;;;;;2.45;1.80;;;17.20;78.00;;;;;;4988836;28;20050;-80
2021/05/07 10:58:39;;;;;;;4.00;2.30;;;17.00;76.50;;;;;;4973842;28;20672;-80
2021/05/07 11:01:17;;;;;;;1.98;1.75;;;16.90;77.90;;;;;;4973590;28;20058;-79
2021/05/07 11:03:43;;;;;;;2.40;2.20;;;16.80;77.20;;;;;;4988374;28;20038;-80
2021/05/07 11:06:08;;;;;;;3.60;2.13;;;16.80;76.60;;;;;;4987212;28;20052;-80
2021/05/07 11:08:34;;;;;;;3.40;2.00;;;16.70;75.60;;;;;;4984504;28;20022;-80
2021/05/07 11:11:00;;;;;;;3.08;1.70;;;16.50;73.80;;;;;;4990033;28;20569;-80
2021/05/07 11:13:25;;;;;;;2.90;1.48;;;16.50;75.00;;;;;;4975603;28;20037;-80
2021/05/07 11:15:58;;;;;;;1.92;1.33;;;16.60;74.50;;;;;;4968433;28;20434;-80
2021/05/07 11:18:31;;;;;;;1.75;1.35;;;16.70;73.50;;;;;;4988948;28;20034;-78
2021/05/07 11:20:57;;;;;;;2.95;1.77;;;16.80;74.40;;;;;;4973651;28;20033;-78
2021/05/07 11:23:28;;;;;;;2.15;1.60;;;16.90;72.80;;;;;;5005173;28;20350;-78
2021/05/07 11:25:54;;;;;;;3.67;1.80;;;16.90;73.10;;;;;;4971809;28;20409;-79
2021/05/07 11:28:20;;;;;;;3.75;1.63;;;17.00;72.10;;;;;;4984415;28;20032;-78
2021/05/07 11:30:57;;;;;;;3.38;2.00;;;17.00;73.40;;;;;;4969860;28;20036;-79
2021/05/07 11:33:26;;;;;;;3.58;2.05;;;17.00;71.00;;;;;;4996950;28;20045;-79
2021/05/07 11:36:09;;;;;;;4.63;2.33;;;16.70;71.80;;;;;;4986543;28;20029;-79
2021/05/07 11:38:35;;;;;;;3.03;2.50;;;16.90;72.30;;;;;;4987041;28;20061;-79
2021/05/07 11:41:01;;;;;;;3.75;2.75;;;17.20;70.50;;;;;;4985820;28;20544;-79
2021/05/07 11:43:28;;;;;;;3.55;2.35;;;17.20;70.70;;;;;;4294086;28;9999733;-79
2021/05/07 11:46:04;;;;;;;4.20;2.17;;;16.70;69.70;;;;;;4953759;28;20603;-79
2021/05/07 11:48:29;;;;;;;;;;;17.00;69.20;;;;;;4987430;28;20117;-79
2021/05/07 11:50:57;;;;;;;3.73;2.40;;;17.30;69.40;;;;;;4992652;28;19997;-79
2021/05/07 11:53:22;;;;;;;3.60;1.92;;;17.40;65.40;;;;;;4971116;28;20045;-79
2021/05/07 11:55:48;;;;;;;5.60;2.30;;;17.40;68.10;;;;;;4985754;28;20034;-79
2021/05/07 11:58:14;;;;;;;2.40;1.90;;;17.70;67.90;;;;;;4970540;28;20366;-79
2021/05/07 12:00:40;;;;;;;2.45;1.90;;;17.90;65.60;;;;;;4999916;28;20287;-79
2021/05/07 12:03:05;;;;;;;2.88;1.25;;;18.00;66.40;;;;;;4970000;28;20505;-79
2021/05/07 12:05:42;;;;;;;2.67;1.27;;;17.60;61.20;;;;;;4998791;28;20053;-79
2021/05/07 12:08:08;;;;;;;3.20;1.75;;;17.80;64.40;;;;;;4983493;28;20060;-79
2021/05/07 12:10:36;;;;;;;1.85;1.52;;;18.10;65.40;;;;;;4973786;28;20030;-79
2021/05/07 12:13:02;;;;;;;2.55;1.58;;;18.20;65.40;;;;;;4980039;28;20038;-79
2021/05/07 12:15:31;;;;;;;4.03;1.73;;;18.50;65.40;;;;;;4969204;28;20038;-79
2021/05/07 12:17:59;;;;;;;2.63;1.73;;;18.50;60.40;;;;;;4987315;28;20033;-79
2021/05/07 12:20:28;;;;;;;2.83;1.77;;;18.60;60.30;;;;;;4986436;28;20712;-79
2021/05/07 12:22:55;;;;;;;1.73;1.58;;;18.70;61.70;;;;;;4982710;28;20026;-80
2021/05/07 12:25:23;;;;;;;1.30;1.20;;;18.70;61.80;;;;;;4986615;28;20034;-79
2021/05/07 12:27:49;;;;;;;2.00;1.80;;;18.50;57.20;;;;;;4970690;28;20176;-80
2021/05/07 12:30:21;;;;;;;1.98;1.52;;;18.70;62.00;;;;;;4982827;28;20030;-80
2021/05/07 12:33:14;;;;;;;1.73;1.63;;;19.00;60.50;;;;;;4969087;28;20122;-80
2021/05/07 12:35:44;;;;;;;1.70;1.15;;;18.90;60.50;;;;;;4982443;28;20493;-80
2021/05/07 12:38:19;;;;;;;1.40;1.30;;;18.90;59.60;;;;;;4993224;28;20034;-80
2021/05/07 12:40:45;;;;;;;;;;;19.00;58.90;;;;;;4985802;28;20186;-80
2021/05/07 12:43:11;;;;;;;2.30;1.77;;;19.10;58.80;;;;;;4988058;28;20004;-80